sensor_id;sensor_type;location;lat;lon;timestamp;temperature;humidity
4584;DHT22;2304;47.606;12.186;2023-04-25T00:03:13;9.90;70.70
4584;DHT22;2304;47.606;12.186;2023-04-25T00:08:17;10.00;70.60
4584;DHT22;2304;47.606;12.186;2023-04-25T00:13:19;9.90;71.20
4584;DHT22;2304;47.606;12.186;2023-04-25T00:18:22;9.90;71.10
4584;DHT22;2304;47.606;12.186;2023-04-25T00:35:19;9.90;71.00
4584;DHT22;2304;47.606;12.186;2023-04-25T00:40:21;9.90;70.80
4584;DHT22;2304;47.606;12.186;2023-04-25T00:45:27;9.90;71.50
4584;DHT22;2304;47.606;12.186;2023-04-25T00:50:32;9.80;71.30
4584;DHT22;2304;47.606;12.186;2023-04-25T00:55:34;9.80;71.60
4584;DHT22;2304;47.606;12.186;2023-04-25T01:00:37;9.80;70.80
4584;DHT22;2304;47.606;12.186;2023-04-25T01:05:40;9.80;71.30
4584;DHT22;2304;47.606;12.186;2023-04-25T01:10:43;9.80;71.00
4584;DHT22;2304;47.606;12.186;2023-04-25T01:15:44;9.80;71.10
4584;DHT22;2304;47.606;12.186;2023-04-25T01:20:49;9.80;71.50
4584;DHT22;2304;47.606;12.186;2023-04-25T01:25:53;9.80;72.20
4584;DHT22;2304;47.606;12.186;2023-04-25T01:30:56;9.80;72.10
4584;DHT22;2304;47.606;12.186;2023-04-25T01:35:58;9.80;71.70
4584;DHT22;2304;47.606;12.186;2023-04-25T01:41:01;9.80;71.60
4584;DHT22;2304;47.606;12.186;2023-04-25T01:46:04;9.80;72.20
4584;DHT22;2304;47.606;12.186;2023-04-25T01:51:06;9.70;72.60
4584;DHT22;2304;47.606;12.186;2023-04-25T01:56:09;9.80;72.40
4584;DHT22;2304;47.606;12.186;2023-04-25T02:01:11;9.90;72.50
4584;DHT22;2304;47.606;12.186;2023-04-25T02:06:13;9.60;73.70
4584;DHT22;2304;47.606;12.186;2023-04-25T02:11:16;9.60;74.30
4584;DHT22;2304;47.606;12.186;2023-04-25T02:16:18;9.70;74.10
4584;DHT22;2304;47.606;12.186;2023-04-25T02:21:20;9.60;74.20
4584;DHT22;2304;47.606;12.186;2023-04-25T02:26:23;9.50;75.20
4584;DHT22;2304;47.606;12.186;2023-04-25T02:31:25;9.50;74.40
4584;DHT22;2304;47.606;12.186;2023-04-25T02:36:27;9.70;73.90
4584;DHT22;2304;47.606;12.186;2023-04-25T02:41:34;9.40;74.40
4584;DHT22;2304;47.606;12.186;2023-04-25T02:46:35;9.20;74.30
4584;DHT22;2304;47.606;12.186;2023-04-25T02:51:37;9.20;75.40
4584;DHT22;2304;47.606;12.186;2023-04-25T02:56:40;9.20;75.80
4584;DHT22;2304;47.606;12.186;2023-04-25T03:01:42;9.20;75.20
4584;DHT22;2304;47.606;12.186;2023-04-25T03:06:44;9.20;76.00
4584;DHT22;2304;47.606;12.186;2023-04-25T03:11:47;9.20;75.70
4584;DHT22;2304;47.606;12.186;2023-04-25T03:16:49;9.20;76.40
4584;DHT22;2304;47.606;12.186;2023-04-25T03:21:51;9.10;76.90
4584;DHT22;2304;47.606;12.186;2023-04-25T03:26:55;8.90;78.30
4584;DHT22;2304;47.606;12.186;2023-04-25T03:31:57;9.00;78.70
4584;DHT22;2304;47.606;12.186;2023-04-25T03:36:59;8.90;80.90
4584;DHT22;2304;47.606;12.186;2023-04-25T03:42:02;9.00;79.20
4584;DHT22;2304;47.606;12.186;2023-04-25T03:47:04;8.90;78.10
4584;DHT22;2304;47.606;12.186;2023-04-25T03:52:06;9.00;77.00
4584;DHT22;2304;47.606;12.186;2023-04-25T03:57:09;9.10;76.10
4584;DHT22;2304;47.606;12.186;2023-04-25T04:02:11;9.10;76.50
4584;DHT22;2304;47.606;12.186;2023-04-25T04:07:13;9.40;76.60
4584;DHT22;2304;47.606;12.186;2023-04-25T04:12:17;9.30;76.40
4584;DHT22;2304;47.606;12.186;2023-04-25T04:17:18;9.20;76.40
4584;DHT22;2304;47.606;12.186;2023-04-25T04:22:21;9.30;77.00
4584;DHT22;2304;47.606;12.186;2023-04-25T04:27:24;9.30;76.50
4584;DHT22;2304;47.606;12.186;2023-04-25T04:32:26;9.40;74.70
4584;DHT22;2304;47.606;12.186;2023-04-25T04:37:30;9.40;74.30
4584;DHT22;2304;47.606;12.186;2023-04-25T04:42:34;9.50;74.60
4584;DHT22;2304;47.606;12.186;2023-04-25T04:47:36;9.40;75.40
4584;DHT22;2304;47.606;12.186;2023-04-25T04:52:40;9.50;75.30
4584;DHT22;2304;47.606;12.186;2023-04-25T04:57:43;9.50;74.50
4584;DHT22;2304;47.606;12.186;2023-04-25T05:02:45;9.40;75.80
4584;DHT22;2304;47.606;12.186;2023-04-25T05:07:46;9.70;76.60
4584;DHT22;2304;47.606;12.186;2023-04-25T05:12:49;9.50;76.60
4584;DHT22;2304;47.606;12.186;2023-04-25T05:17:51;9.50;76.30
4584;DHT22;2304;47.606;12.186;2023-04-25T05:22:53;9.50;76.80
4584;DHT22;2304;47.606;12.186;2023-04-25T05:27:56;9.50;76.90
4584;DHT22;2304;47.606;12.186;2023-04-25T05:32:58;9.50;76.00
4584;DHT22;2304;47.606;12.186;2023-04-25T05:38:01;9.50;75.20
4584;DHT22;2304;47.606;12.186;2023-04-25T05:43:04;9.60;75.00
4584;DHT22;2304;47.606;12.186;2023-04-25T05:48:06;9.70;74.20
4584;DHT22;2304;47.606;12.186;2023-04-25T05:53:07;9.70;73.80
4584;DHT22;2304;47.606;12.186;2023-04-25T05:58:11;9.80;74.30
4584;DHT22;2304;47.606;12.186;2023-04-25T06:03:13;9.90;74.10
4584;DHT22;2304;47.606;12.186;2023-04-25T06:08:15;10.20;75.00
4584;DHT22;2304;47.606;12.186;2023-04-25T06:13:18;10.00;73.10
4584;DHT22;2304;47.606;12.186;2023-04-25T06:18:20;10.00;73.10
4584;DHT22;2304;47.606;12.186;2023-04-25T06:23:22;10.10;73.60
4584;DHT22;2304;47.606;12.186;2023-04-25T06:28:25;10.20;73.10
4584;DHT22;2304;47.606;12.186;2023-04-25T06:33:27;10.40;71.70
4584;DHT22;2304;47.606;12.186;2023-04-25T06:38:29;10.40;70.10
4584;DHT22;2304;47.606;12.186;2023-04-25T06:43:32;10.40;69.40
4584;DHT22;2304;47.606;12.186;2023-04-25T06:48:34;10.50;69.50
4584;DHT22;2304;47.606;12.186;2023-04-25T06:53:36;10.50;67.80
4584;DHT22;2304;47.606;12.186;2023-04-25T06:58:39;10.40;68.70
4584;DHT22;2304;47.606;12.186;2023-04-25T07:03:41;10.40;69.30
4584;DHT22;2304;47.606;12.186;2023-04-25T07:08:43;10.30;70.60
4584;DHT22;2304;47.606;12.186;2023-04-25T07:13:46;10.30;70.30
4584;DHT22;2304;47.606;12.186;2023-04-25T07:18:48;10.20;70.50
4584;DHT22;2304;47.606;12.186;2023-04-25T07:23:49;10.10;70.00
4584;DHT22;2304;47.606;12.186;2023-04-25T07:28:52;10.10;70.80
4584;DHT22;2304;47.606;12.186;2023-04-25T07:33:55;10.20;68.20
4584;DHT22;2304;47.606;12.186;2023-04-25T07:38:56;10.30;69.30
4584;DHT22;2304;47.606;12.186;2023-04-25T07:44:00;10.40;68.00
4584;DHT22;2304;47.606;12.186;2023-04-25T07:49:01;10.50;69.60
4584;DHT22;2304;47.606;12.186;2023-04-25T07:54:03;10.70;68.90
4584;DHT22;2304;47.606;12.186;2023-04-25T07:59:07;10.90;68.90
4584;DHT22;2304;47.606;12.186;2023-04-25T08:04:09;11.30;68.50
4584;DHT22;2304;47.606;12.186;2023-04-25T08:09:11;11.80;65.20
4584;DHT22;2304;47.606;12.186;2023-04-25T08:14:14;12.40;65.60
4584;DHT22;2304;47.606;12.186;2023-04-25T08:19:16;12.80;60.60
4584;DHT22;2304;47.606;12.186;2023-04-25T08:24:18;12.60;59.90
4584;DHT22;2304;47.606;12.186;2023-04-25T08:29:21;12.60;58.90
4584;DHT22;2304;47.606;12.186;2023-04-25T08:34:25;13.20;60.60
4584;DHT22;2304;47.606;12.186;2023-04-25T08:39:27;13.40;57.60
4584;DHT22;2304;47.606;12.186;2023-04-25T08:44:30;13.30;58.00
4584;DHT22;2304;47.606;12.186;2023-04-25T08:49:34;13.20;58.20
4584;DHT22;2304;47.606;12.186;2023-04-25T08:54:36;13.50;56.90
4584;DHT22;2304;47.606;12.186;2023-04-25T08:59:40;13.80;55.10
4584;DHT22;2304;47.606;12.186;2023-04-25T09:04:46;13.80;50.30
4584;DHT22;2304;47.606;12.186;2023-04-25T09:09:47;13.80;50.30
4584;DHT22;2304;47.606;12.186;2023-04-25T09:15:10;13.80;48.90
4584;DHT22;2304;47.606;12.186;2023-04-25T09:20:13;13.70;51.40
4584;DHT22;2304;47.606;12.186;2023-04-25T09:25:15;13.50;52.50
4584;DHT22;2304;47.606;12.186;2023-04-25T09:30:18;13.30;53.00
4584;DHT22;2304;47.606;12.186;2023-04-25T09:35:30;13.40;53.10
4584;DHT22;2304;47.606;12.186;2023-04-25T09:40:39;14.20;50.80
4584;DHT22;2304;47.606;12.186;2023-04-25T09:45:43;15.00;49.90
4584;DHT22;2304;47.606;12.186;2023-04-25T09:51:04;15.10;50.40
4584;DHT22;2304;47.606;12.186;2023-04-25T09:56:07;14.90;49.30
4584;DHT22;2304;47.606;12.186;2023-04-25T10:01:11;14.70;48.80
4584;DHT22;2304;47.606;12.186;2023-04-25T10:06:19;14.70;49.70
4584;DHT22;2304;47.606;12.186;2023-04-25T10:11:22;15.20;47.20
4584;DHT22;2304;47.606;12.186;2023-04-25T10:16:27;15.20;48.40
4584;DHT22;2304;47.606;12.186;2023-04-25T10:21:32;15.20;48.60
4584;DHT22;2304;47.606;12.186;2023-04-25T10:26:35;15.20;47.20
4584;DHT22;2304;47.606;12.186;2023-04-25T10:31:46;15.80;46.70
4584;DHT22;2304;47.606;12.186;2023-04-25T10:36:50;15.90;45.10
4584;DHT22;2304;47.606;12.186;2023-04-25T10:41:53;15.70;44.10
4584;DHT22;2304;47.606;12.186;2023-04-25T10:46:59;15.40;46.30
4584;DHT22;2304;47.606;12.186;2023-04-25T10:52:12;15.90;47.20
4584;DHT22;2304;47.606;12.186;2023-04-25T10:57:27;15.90;44.40
4584;DHT22;2304;47.606;12.186;2023-04-25T11:02:31;15.60;45.30
4584;DHT22;2304;47.606;12.186;2023-04-25T11:07:45;15.80;46.40
4584;DHT22;2304;47.606;12.186;2023-04-25T11:12:50;15.70;46.00
4584;DHT22;2304;47.606;12.186;2023-04-25T11:17:54;15.50;45.40
4584;DHT22;2304;47.606;12.186;2023-04-25T11:22:58;16.00;46.00
4584;DHT22;2304;47.606;12.186;2023-04-25T11:28:00;16.60;44.50
4584;DHT22;2304;47.606;12.186;2023-04-25T11:33:04;17.10;43.30
4584;DHT22;2304;47.606;12.186;2023-04-25T11:38:06;17.00;42.20
4584;DHT22;2304;47.606;12.186;2023-04-25T11:43:09;16.80;41.80
4584;DHT22;2304;47.606;12.186;2023-04-25T11:48:12;17.00;42.20
4584;DHT22;2304;47.606;12.186;2023-04-25T11:53:14;16.90;39.80
4584;DHT22;2304;47.606;12.186;2023-04-25T11:58:16;16.50;40.00
4584;DHT22;2304;47.606;12.186;2023-04-25T12:03:19;16.30;43.50
4584;DHT22;2304;47.606;12.186;2023-04-25T12:08:22;16.20;41.90
4584;DHT22;2304;47.606;12.186;2023-04-25T12:13:25;16.30;43.20
4584;DHT22;2304;47.606;12.186;2023-04-25T12:18:29;16.70;41.90
4584;DHT22;2304;47.606;12.186;2023-04-25T12:23:31;17.00;39.30
4584;DHT22;2304;47.606;12.186;2023-04-25T12:28:33;16.80;38.30
4584;DHT22;2304;47.606;12.186;2023-04-25T12:33:37;16.60;38.40
4584;DHT22;2304;47.606;12.186;2023-04-25T12:38:41;16.00;39.80
4584;DHT22;2304;47.606;12.186;2023-04-25T12:43:43;15.60;45.00
4584;DHT22;2304;47.606;12.186;2023-04-25T12:48:46;16.00;48.70
4584;DHT22;2304;47.606;12.186;2023-04-25T12:53:48;16.20;46.10
4584;DHT22;2304;47.606;12.186;2023-04-25T12:58:49;16.90;46.00
4584;DHT22;2304;47.606;12.186;2023-04-25T13:03:53;17.20;46.10
4584;DHT22;2304;47.606;12.186;2023-04-25T13:08:54;17.10;43.20
4584;DHT22;2304;47.606;12.186;2023-04-25T13:13:56;17.00;43.40
4584;DHT22;2304;47.606;12.186;2023-04-25T13:18:59;17.30;43.60
4584;DHT22;2304;47.606;12.186;2023-04-25T13:24:01;17.50;46.00
4584;DHT22;2304;47.606;12.186;2023-04-25T13:29:03;17.40;46.60
4584;DHT22;2304;47.606;12.186;2023-04-25T13:34:06;17.00;45.10
4584;DHT22;2304;47.606;12.186;2023-04-25T13:39:08;16.50;45.40
4584;DHT22;2304;47.606;12.186;2023-04-25T13:44:10;16.20;47.20
4584;DHT22;2304;47.606;12.186;2023-04-25T13:49:13;16.60;46.50
4584;DHT22;2304;47.606;12.186;2023-04-25T13:54:15;17.10;45.90
4584;DHT22;2304;47.606;12.186;2023-04-25T13:59:17;16.70;44.20
4584;DHT22;2304;47.606;12.186;2023-04-25T14:04:20;16.50;46.70
4584;DHT22;2304;47.606;12.186;2023-04-25T14:09:22;16.00;47.50
4584;DHT22;2304;47.606;12.186;2023-04-25T14:14:26;15.00;49.10
4584;DHT22;2304;47.606;12.186;2023-04-25T14:19:29;14.60;50.90
4584;DHT22;2304;47.606;12.186;2023-04-25T14:24:31;14.00;52.70
4584;DHT22;2304;47.606;12.186;2023-04-25T14:29:32;13.60;54.00
4584;DHT22;2304;47.606;12.186;2023-04-25T14:34:35;13.10;57.50
4584;DHT22;2304;47.606;12.186;2023-04-25T14:39:37;12.70;58.00
4584;DHT22;2304;47.606;12.186;2023-04-25T14:44:39;12.70;57.80
4584;DHT22;2304;47.606;12.186;2023-04-25T14:49:42;12.80;58.20
4584;DHT22;2304;47.606;12.186;2023-04-25T14:54:47;12.80;58.40
4584;DHT22;2304;47.606;12.186;2023-04-25T14:59:49;12.80;59.00
4584;DHT22;2304;47.606;12.186;2023-04-25T15:04:52;12.70;58.00
4584;DHT22;2304;47.606;12.186;2023-04-25T15:09:54;12.60;59.80
4584;DHT22;2304;47.606;12.186;2023-04-25T15:14:57;12.50;58.80
4584;DHT22;2304;47.606;12.186;2023-04-25T15:20:00;12.60;59.90
4584;DHT22;2304;47.606;12.186;2023-04-25T15:25:02;12.70;59.60
4584;DHT22;2304;47.606;12.186;2023-04-25T15:30:05;12.40;57.60
4584;DHT22;2304;47.606;12.186;2023-04-25T15:35:09;12.40;59.90
4584;DHT22;2304;47.606;12.186;2023-04-25T15:40:13;12.20;60.40
4584;DHT22;2304;47.606;12.186;2023-04-25T15:45:15;12.00;60.90
4584;DHT22;2304;47.606;12.186;2023-04-25T15:50:19;11.90;59.80
4584;DHT22;2304;47.606;12.186;2023-04-25T15:55:21;12.00;60.20
4584;DHT22;2304;47.606;12.186;2023-04-25T16:00:26;12.10;61.10
4584;DHT22;2304;47.606;12.186;2023-04-25T16:05:29;12.20;61.50
4584;DHT22;2304;47.606;12.186;2023-04-25T16:10:31;12.10;61.50
4584;DHT22;2304;47.606;12.186;2023-04-25T16:15:33;12.10;61.70
4584;DHT22;2304;47.606;12.186;2023-04-25T16:20:36;12.20;61.60
4584;DHT22;2304;47.606;12.186;2023-04-25T16:25:38;12.30;60.90
4584;DHT22;2304;47.606;12.186;2023-04-25T16:30:42;12.20;62.40
4584;DHT22;2304;47.606;12.186;2023-04-25T16:35:45;12.10;63.50
4584;DHT22;2304;47.606;12.186;2023-04-25T16:40:49;12.00;62.90
4584;DHT22;2304;47.606;12.186;2023-04-25T16:45:51;12.00;63.30
4584;DHT22;2304;47.606;12.186;2023-04-25T16:50:54;11.90;62.90
4584;DHT22;2304;47.606;12.186;2023-04-25T16:55:56;11.80;63.00
4584;DHT22;2304;47.606;12.186;2023-04-25T17:00:58;11.60;60.50
4584;DHT22;2304;47.606;12.186;2023-04-25T17:06:01;11.40;60.80
4584;DHT22;2304;47.606;12.186;2023-04-25T17:11:03;11.20;60.80
4584;DHT22;2304;47.606;12.186;2023-04-25T17:16:06;11.00;61.90
4584;DHT22;2304;47.606;12.186;2023-04-25T17:21:09;11.00;62.40
4584;DHT22;2304;47.606;12.186;2023-04-25T17:26:11;10.90;62.20
4584;DHT22;2304;47.606;12.186;2023-04-25T17:31:13;10.90;61.80
4584;DHT22;2304;47.606;12.186;2023-04-25T17:36:16;10.80;63.00
4584;DHT22;2304;47.606;12.186;2023-04-25T17:41:18;10.70;63.60
4584;DHT22;2304;47.606;12.186;2023-04-25T17:46:20;10.70;64.40
4584;DHT22;2304;47.606;12.186;2023-04-25T17:51:23;10.70;65.30
4584;DHT22;2304;47.606;12.186;2023-04-25T17:56:25;10.50;63.90
4584;DHT22;2304;47.606;12.186;2023-04-25T18:01:27;10.50;65.20
4584;DHT22;2304;47.606;12.186;2023-04-25T18:06:31;10.30;63.60
4584;DHT22;2304;47.606;12.186;2023-04-25T18:11:33;10.40;64.60
4584;DHT22;2304;47.606;12.186;2023-04-25T18:16:35;10.40;64.40
4584;DHT22;2304;47.606;12.186;2023-04-25T18:21:38;10.40;64.70
4584;DHT22;2304;47.606;12.186;2023-04-25T18:26:40;10.30;65.60
4584;DHT22;2304;47.606;12.186;2023-04-25T18:31:45;10.40;65.60
4584;DHT22;2304;47.606;12.186;2023-04-25T18:36:48;10.30;66.80
4584;DHT22;2304;47.606;12.186;2023-04-25T18:41:51;10.30;67.90
4584;DHT22;2304;47.606;12.186;2023-04-25T18:46:54;10.30;67.40
4584;DHT22;2304;47.606;12.186;2023-04-25T18:51:58;10.10;67.90
4584;DHT22;2304;47.606;12.186;2023-04-25T18:57:00;10.00;68.00
4584;DHT22;2304;47.606;12.186;2023-04-25T19:02:02;10.00;69.40
4584;DHT22;2304;47.606;12.186;2023-04-25T19:07:05;10.00;68.60
4584;DHT22;2304;47.606;12.186;2023-04-25T19:12:07;9.90;68.80
4584;DHT22;2304;47.606;12.186;2023-04-25T19:17:09;10.00;70.50
4584;DHT22;2304;47.606;12.186;2023-04-25T19:22:13;10.00;69.20
4584;DHT22;2304;47.606;12.186;2023-04-25T19:27:15;10.00;69.00
4584;DHT22;2304;47.606;12.186;2023-04-25T19:32:17;9.90;69.20
4584;DHT22;2304;47.606;12.186;2023-04-25T19:37:20;9.70;70.50
4584;DHT22;2304;47.606;12.186;2023-04-25T19:42:22;9.50;71.40
4584;DHT22;2304;47.606;12.186;2023-04-25T19:47:24;9.50;72.40
4584;DHT22;2304;47.606;12.186;2023-04-25T19:52:29;9.30;71.40
4584;DHT22;2304;47.606;12.186;2023-04-25T19:57:31;9.40;72.10
4584;DHT22;2304;47.606;12.186;2023-04-25T20:02:33;9.40;72.40
4584;DHT22;2304;47.606;12.186;2023-04-25T20:07:37;9.50;71.50
4584;DHT22;2304;47.606;12.186;2023-04-25T20:12:39;9.50;71.20
4584;DHT22;2304;47.606;12.186;2023-04-25T20:17:41;9.70;70.00
4584;DHT22;2304;47.606;12.186;2023-04-25T20:22:44;9.40;68.60
4584;DHT22;2304;47.606;12.186;2023-04-25T20:27:46;9.40;69.10
4584;DHT22;2304;47.606;12.186;2023-04-25T20:32:48;9.40;68.60
4584;DHT22;2304;47.606;12.186;2023-04-25T20:37:51;9.40;69.20
4584;DHT22;2304;47.606;12.186;2023-04-25T20:42:53;9.40;69.30
4584;DHT22;2304;47.606;12.186;2023-04-25T20:47:56;9.30;70.20
4584;DHT22;2304;47.606;12.186;2023-04-25T20:52:59;9.30;70.60
4584;DHT22;2304;47.606;12.186;2023-04-25T20:58:00;9.30;69.60
4584;DHT22;2304;47.606;12.186;2023-04-25T21:03:02;9.30;69.90
4584;DHT22;2304;47.606;12.186;2023-04-25T21:08:06;9.20;70.00
4584;DHT22;2304;47.606;12.186;2023-04-25T21:13:08;9.20;71.00
4584;DHT22;2304;47.606;12.186;2023-04-25T21:18:09;9.20;72.60
4584;DHT22;2304;47.606;12.186;2023-04-25T21:23:12;8.90;73.10
4584;DHT22;2304;47.606;12.186;2023-04-25T21:28:15;9.00;73.90
4584;DHT22;2304;47.606;12.186;2023-04-25T21:33:16;9.00;72.70
4584;DHT22;2304;47.606;12.186;2023-04-25T21:38:20;9.00;72.70
4584;DHT22;2304;47.606;12.186;2023-04-25T21:43:21;8.80;72.60
4584;DHT22;2304;47.606;12.186;2023-04-25T21:48:23;8.70;73.40
4584;DHT22;2304;47.606;12.186;2023-04-25T21:53:26;8.80;73.60
4584;DHT22;2304;47.606;12.186;2023-04-25T21:58:28;8.70;74.60
4584;DHT22;2304;47.606;12.186;2023-04-25T22:03:30;8.80;75.70
4584;DHT22;2304;47.606;12.186;2023-04-25T22:08:34;8.90;74.70
4584;DHT22;2304;47.606;12.186;2023-04-25T22:13:35;9.00;75.20
4584;DHT22;2304;47.606;12.186;2023-04-25T22:18:38;9.10;75.30
4584;DHT22;2304;47.606;12.186;2023-04-25T22:23:42;9.10;73.70
4584;DHT22;2304;47.606;12.186;2023-04-25T22:28:44;9.10;73.30
4584;DHT22;2304;47.606;12.186;2023-04-25T22:33:46;9.20;73.10
4584;DHT22;2304;47.606;12.186;2023-04-25T22:38:49;9.20;73.70
4584;DHT22;2304;47.606;12.186;2023-04-25T22:43:51;9.10;72.90
4584;DHT22;2304;47.606;12.186;2023-04-25T22:48:54;9.10;73.20
4584;DHT22;2304;47.606;12.186;2023-04-25T22:53:57;9.20;73.30
4584;DHT22;2304;47.606;12.186;2023-04-25T22:59:00;9.10;73.80
4584;DHT22;2304;47.606;12.186;2023-04-25T23:04:02;9.20;73.20
4584;DHT22;2304;47.606;12.186;2023-04-25T23:09:05;9.20;72.60
4584;DHT22;2304;47.606;12.186;2023-04-25T23:14:09;9.10;72.50
4584;DHT22;2304;47.606;12.186;2023-04-25T23:19:11;9.30;72.30
4584;DHT22;2304;47.606;12.186;2023-04-25T23:24:14;9.10;72.30
4584;DHT22;2304;47.606;12.186;2023-04-25T23:29:15;9.10;74.00
4584;DHT22;2304;47.606;12.186;2023-04-25T23:34:17;9.00;74.10
4584;DHT22;2304;47.606;12.186;2023-04-25T23:39:20;9.10;73.00
4584;DHT22;2304;47.606;12.186;2023-04-25T23:44:23;9.30;73.50
4584;DHT22;2304;47.606;12.186;2023-04-25T23:49:25;9.00;73.00
4584;DHT22;2304;47.606;12.186;2023-04-25T23:54:28;9.00;72.80
4584;DHT22;2304;47.606;12.186;2023-04-25T23:59:29;9.10;72.60
